MET'MAP v2.0
soon released !

Expected late october,
this new version will be
more efficient, smarter,
and hosted on a brand new
server x3 powerfull...
...and still free !


Not compatible ?
Try the mobile version !

LOG IN : | Subscribe | Disclaimer | Who is Orbifly ? |
ICAO code :

TAF - EDQM Hof Plauen - 12 Dec 2019 02:42 UTC
Data Sources :     NOAA   


- Airport Elevation : 1959 ft
- IATA code : HOQ
- No reported NOTAMs.


EDQM - Hof Plauen

Latest METAR recorded : 2015/08/11 07:50 EDQM 110750Z 35005KT 250V050 CAVOK 22/15 Q1017
TAF TAF EDQM
Valid from the 11 at 18:00 until the 12 at 03:00 UTC


111700Z 1118/1203 19007KT 8000 SCT012 BKN025
BECMG 1118/1120 4500 -SN BKN012
TEMPO 1119/1203 1800 SN BKN004

Source NOAA


MET'MAP, your aeronautical weather chart ! - Copyright ORBIFLY December 2007

Programming & Development : Alexandra Zaïnal
Co-Developer : Marc-Olivier Méhu
Technical & hardware support : Manuel Goepfert
Concept & Financing : Baudouin d'Aumeries